createdAt,value
2022-10-24T00:00:39.202Z,23.0100
2022-10-24T00:01:41.263Z,23.0100
2022-10-24T00:02:43.437Z,23.0100
2022-10-24T00:03:45.497Z,23.0100
2022-10-24T00:04:47.687Z,23.0000
2022-10-24T00:05:49.849Z,23.0000
2022-10-24T00:06:52.072Z,23.0100
2022-10-24T00:07:54.240Z,23.0000
2022-10-24T00:08:56.435Z,22.9900
2022-10-24T00:09:58.625Z,22.9800
2022-10-24T00:11:00.824Z,22.9700
2022-10-24T00:12:03.066Z,22.9700
2022-10-24T00:13:05.202Z,22.9800
2022-10-24T00:14:07.366Z,22.9900
2022-10-24T00:15:09.547Z,23.0000
2022-10-24T00:16:11.688Z,23.0000
2022-10-24T00:17:13.845Z,23.0000
2022-10-24T00:18:16.013Z,23.0000
2022-10-24T00:19:18.178Z,22.9900
2022-10-24T00:20:20.359Z,22.9900
2022-10-24T00:21:22.524Z,22.9800
2022-10-24T00:22:24.747Z,22.9800
2022-10-24T00:23:24.745Z,22.9800
2022-10-24T00:25:44.213Z,23.0800
2022-10-24T00:26:46.324Z,23.1500
2022-10-24T00:27:47.377Z,23.1800
2022-10-24T00:28:48.591Z,23.1900
2022-10-24T00:29:50.630Z,23.2100
2022-10-24T00:30:52.777Z,23.2300
2022-10-24T00:31:54.902Z,23.2400
2022-10-24T00:32:57.044Z,23.2300
2022-10-24T00:33:59.107Z,23.2300
2022-10-24T00:35:01.265Z,23.2400
2022-10-24T00:36:03.455Z,23.2400
2022-10-24T00:37:05.591Z,23.2400
2022-10-24T00:38:07.751Z,23.2400
2022-10-24T00:39:09.858Z,23.2300
2022-10-24T00:40:12.017Z,23.2200
2022-10-24T00:41:14.178Z,23.2300
2022-10-24T00:42:16.343Z,23.2200
2022-10-24T00:43:18.498Z,23.2100
2022-10-24T00:44:20.579Z,23.2200
2022-10-24T00:45:22.734Z,23.2300
2022-10-24T00:46:24.900Z,23.2100
2022-10-24T00:47:27.036Z,23.2100
2022-10-24T00:48:29.181Z,23.2100
2022-10-24T00:49:31.257Z,23.2200
2022-10-24T00:50:33.376Z,23.2200
2022-10-24T00:51:35.543Z,23.2100
2022-10-24T00:52:37.633Z,23.2100
2022-10-24T00:53:39.809Z,23.1900
2022-10-24T00:54:41.893Z,23.1900
2022-10-24T00:55:44.076Z,23.2100
2022-10-24T00:56:46.280Z,23.2100
2022-10-24T00:57:48.500Z,23.2100
2022-10-24T00:58:50.750Z,23.2100
2022-10-24T00:59:52.916Z,23.2200
2022-10-24T01:00:55.168Z,23.2000
2022-10-24T01:01:57.281Z,23.2100
2022-10-24T01:02:59.484Z,23.2000
2022-10-24T01:04:01.759Z,23.2000
2022-10-24T01:05:03.815Z,23.2000
2022-10-24T01:06:05.958Z,23.2000
2022-10-24T01:06:12.396Z,23.2000
2022-10-24T01:07:14.532Z,23.2100
2022-10-24T01:08:16.683Z,23.2100
2022-10-24T01:09:18.882Z,23.2000
2022-10-24T01:10:21.002Z,23.2000
2022-10-24T01:11:23.126Z,23.1900
2022-10-24T01:12:27.376Z,23.2000
2022-10-24T01:13:29.506Z,23.2000
2022-10-24T01:14:29.572Z,23.1800
2022-10-24T01:15:31.714Z,23.1900
2022-10-24T01:16:33.876Z,23.2000
2022-10-24T01:17:36.045Z,23.1900
2022-10-24T01:18:38.212Z,23.1700
2022-10-24T01:19:40.405Z,23.1600
2022-10-24T01:20:42.541Z,23.1800
2022-10-24T01:21:44.663Z,23.1800
2022-10-24T01:22:48.943Z,23.1900
2022-10-24T01:23:48.927Z,23.1700
2022-10-24T01:24:51.103Z,23.1700
2022-10-24T01:25:53.233Z,23.1700
2022-10-24T01:26:55.453Z,23.1700
2022-10-24T01:27:57.644Z,23.1700
2022-10-24T01:28:59.841Z,23.1800
2022-10-24T01:29:59.896Z,23.1800
2022-10-24T01:31:02.045Z,23.1900
2022-10-24T01:32:04.190Z,23.1900
2022-10-24T01:33:06.348Z,23.1800
2022-10-24T01:34:08.513Z,23.1800
2022-10-24T01:35:10.741Z,23.1800
2022-10-24T01:36:12.836Z,23.1800
2022-10-24T01:37:15.144Z,23.1700
2022-10-24T01:38:17.290Z,23.1700
2022-10-24T01:39:19.447Z,23.1800
2022-10-24T01:40:21.606Z,23.1900
2022-10-24T01:41:23.720Z,23.1800
2022-10-24T01:42:25.906Z,23.1700
2022-10-24T01:43:28.048Z,23.1700
2022-10-24T01:44:30.221Z,23.1700
2022-10-24T01:45:32.428Z,23.1700
2022-10-24T01:46:34.593Z,23.1700
2022-10-24T01:47:36.766Z,23.1700
2022-10-24T01:49:13.329Z,23.1300
2022-10-24T01:50:16.417Z,23.1500
2022-10-24T01:51:17.766Z,23.1400
2022-10-24T01:52:19.724Z,23.1400
2022-10-24T01:53:24.685Z,23.1500
2022-10-24T01:54:24.035Z,23.1400
2022-10-24T01:55:26.194Z,23.1500
2022-10-24T01:56:28.414Z,23.1600
2022-10-24T01:57:30.527Z,23.1600
2022-10-24T01:58:32.730Z,23.1600
2022-10-24T01:59:34.930Z,23.1600
2022-10-24T02:00:37.253Z,23.1600
2022-10-24T02:01:39.408Z,23.1700
2022-10-24T02:02:41.595Z,23.1600
2022-10-24T02:03:43.629Z,23.1500
2022-10-24T02:04:45.793Z,23.1500
2022-10-24T02:05:47.941Z,23.1500
2022-10-24T02:06:50.129Z,23.1500
2022-10-24T02:07:52.262Z,23.1500
2022-10-24T02:08:54.624Z,23.1500
2022-10-24T02:09:56.550Z,23.1400
2022-10-24T02:10:58.731Z,23.1400
2022-10-24T02:12:00.927Z,23.1400
2022-10-24T02:13:03.094Z,23.1300
2022-10-24T02:14:03.149Z,23.1300
2022-10-24T02:15:05.345Z,23.1200
2022-10-24T02:16:07.534Z,23.1200
2022-10-24T02:17:09.753Z,23.1200
2022-10-24T02:18:11.919Z,23.1200
2022-10-24T02:19:14.102Z,23.1200
2022-10-24T02:20:16.284Z,23.1200
2022-10-24T02:21:18.490Z,23.1300
2022-10-24T02:22:20.644Z,23.1300
2022-10-24T02:23:22.802Z,23.1200
2022-10-24T02:24:24.998Z,23.1200
2022-10-24T02:25:27.162Z,23.1300
2022-10-24T02:26:29.336Z,23.1300
2022-10-24T02:27:31.554Z,23.1500
2022-10-24T02:28:33.683Z,23.1500
2022-10-24T02:29:35.851Z,23.1500
2022-10-24T02:30:38.015Z,23.1500
2022-10-24T02:31:40.203Z,23.1400
2022-10-24T02:32:42.345Z,23.1300
2022-10-24T02:33:44.485Z,23.1200
2022-10-24T02:34:46.666Z,23.1200
2022-10-24T02:35:48.853Z,23.1100
2022-10-24T02:36:50.983Z,23.1100
2022-10-24T02:37:53.187Z,23.1100
2022-10-24T02:38:55.343Z,23.1100
2022-10-24T02:39:57.525Z,23.1100
2022-10-24T02:40:59.668Z,23.1200
2022-10-24T02:42:01.766Z,23.1200
2022-10-24T02:43:03.943Z,23.1100
2022-10-24T02:44:06.036Z,23.0900
2022-10-24T02:45:06.081Z,23.1000
2022-10-24T02:46:08.244Z,23.1100
2022-10-24T02:47:10.445Z,23.1000
2022-10-24T02:48:12.709Z,23.1000
2022-10-24T02:49:14.895Z,23.1000
2022-10-24T02:50:17.133Z,23.0800
2022-10-24T02:51:19.351Z,23.0800
2022-10-24T02:52:21.570Z,23.1000
2022-10-24T02:53:23.842Z,23.1000
2022-10-24T02:54:26.016Z,23.1000
2022-10-24T02:55:28.269Z,23.1000
2022-10-24T02:56:30.482Z,23.1000
2022-10-24T02:57:30.560Z,23.1100
2022-10-24T02:58:32.806Z,23.1100
2022-10-24T02:59:35.017Z,23.1100
2022-10-24T03:00:37.274Z,23.1000
2022-10-24T03:01:39.516Z,23.0800
2022-10-24T03:02:41.720Z,23.0700
2022-10-24T03:03:43.966Z,23.0800
2022-10-24T03:04:46.179Z,23.0900
2022-10-24T03:05:48.416Z,23.0800
2022-10-24T03:06:50.677Z,23.0900
2022-10-24T03:07:52.884Z,23.0800
2022-10-24T03:08:52.995Z,23.0900
2022-10-24T03:09:55.203Z,23.0900
2022-10-24T03:10:57.386Z,23.1000
2022-10-24T03:11:59.548Z,23.0900
2022-10-24T03:13:01.724Z,23.0900
2022-10-24T03:14:03.975Z,23.0800
2022-10-24T03:15:06.123Z,23.0800
2022-10-24T03:16:11.614Z,23.0700
2022-10-24T03:17:10.515Z,23.0500
2022-10-24T03:18:12.686Z,23.0700
2022-10-24T03:19:14.869Z,23.0700
2022-10-24T03:20:17.028Z,23.0700
2022-10-24T03:22:49.425Z,23.0400
2022-10-24T03:23:51.536Z,23.0600
2022-10-24T03:24:55.479Z,23.0600
2022-10-24T03:25:55.846Z,23.0500
2022-10-24T03:26:58.010Z,23.0500
2022-10-24T03:28:00.104Z,23.0600
2022-10-24T03:29:02.220Z,23.0500
2022-10-24T03:30:04.361Z,23.0500
2022-10-24T03:31:06.456Z,23.0500
2022-10-24T03:32:08.526Z,23.0600
2022-10-24T03:33:08.500Z,23.0600
2022-10-24T03:34:10.605Z,23.0700
2022-10-24T03:35:14.283Z,23.0600
2022-10-24T03:36:14.856Z,23.0500
2022-10-24T03:37:16.989Z,23.0500
2022-10-24T03:38:19.151Z,23.0500
2022-10-24T03:39:21.293Z,23.0500
2022-10-24T03:40:23.486Z,23.0500
2022-10-24T03:41:25.563Z,23.0500
2022-10-24T03:42:27.733Z,23.0500
2022-10-24T03:43:29.861Z,23.0600
2022-10-24T03:44:31.984Z,23.0500
2022-10-24T03:45:34.100Z,23.0500
2022-10-24T03:46:36.214Z,23.0300
2022-10-24T03:47:38.313Z,23.0400
2022-10-24T03:48:40.449Z,23.0400
2022-10-24T03:49:42.616Z,23.0400
2022-10-24T03:50:44.833Z,23.0400
2022-10-24T03:51:47.010Z,23.0400
2022-10-24T03:52:49.205Z,23.0400
2022-10-24T03:53:49.266Z,23.0300
2022-10-24T03:54:51.496Z,23.0300
2022-10-24T03:55:53.740Z,23.0300
2022-10-24T03:56:55.950Z,23.0300
2022-10-24T03:57:58.207Z,23.0500
2022-10-24T03:59:00.421Z,23.0400
2022-10-24T04:00:02.655Z,23.0300
2022-10-24T04:01:05.051Z,23.0300
2022-10-24T04:02:07.085Z,23.0100
2022-10-24T04:03:09.156Z,23.0200
2022-10-24T04:04:11.319Z,23.0200
2022-10-24T04:05:13.507Z,23.0200
2022-10-24T04:06:15.722Z,23.0100
2022-10-24T04:07:17.967Z,23.0100
2022-10-24T04:08:20.060Z,23.0100
2022-10-24T04:09:22.633Z,22.9900
2022-10-24T04:10:23.233Z,22.8800
2022-10-24T04:11:25.380Z,22.8200
2022-10-24T04:12:27.513Z,22.7900
2022-10-24T04:13:29.707Z,22.7700
2022-10-24T04:14:31.850Z,22.7600
2022-10-24T04:15:34.040Z,22.7600
2022-10-24T04:16:36.281Z,22.7500
2022-10-24T04:17:38.507Z,22.7400
2022-10-24T04:18:40.763Z,22.7200
2022-10-24T04:19:40.858Z,22.7300
2022-10-24T04:20:43.049Z,22.7300
2022-10-24T04:21:45.291Z,22.7300
2022-10-24T04:22:47.748Z,22.7400
2022-10-24T04:23:49.648Z,22.7400
2022-10-24T04:24:51.843Z,22.7500
2022-10-24T04:25:54.043Z,22.7400
2022-10-24T04:26:56.318Z,22.7300
2022-10-24T04:27:58.444Z,22.7300
2022-10-24T04:29:00.668Z,22.7300
2022-10-24T04:30:00.705Z,22.7300
2022-10-24T04:31:02.913Z,22.7300
2022-10-24T04:32:05.176Z,22.7300
2022-10-24T04:33:07.365Z,22.7300
2022-10-24T04:34:09.538Z,22.7200
2022-10-24T04:35:09.591Z,22.7200
2022-10-24T04:36:11.792Z,22.7200
2022-10-24T04:37:13.998Z,22.7200
2022-10-24T04:38:16.163Z,22.7100
2022-10-24T04:39:18.375Z,22.7100
2022-10-24T04:40:20.556Z,22.7100
2022-10-24T04:41:22.797Z,22.7100
2022-10-24T04:42:25.028Z,22.7100
2022-10-24T04:43:27.216Z,22.7100
2022-10-24T04:44:29.473Z,22.7000
2022-10-24T04:45:29.528Z,22.7000
2022-10-24T04:46:31.749Z,22.7000
2022-10-24T04:47:34.015Z,22.7100
2022-10-24T04:48:36.245Z,22.7100
2022-10-24T04:49:38.483Z,22.7200
2022-10-24T04:50:40.725Z,22.7200
2022-10-24T04:51:42.981Z,22.7100
2022-10-24T04:52:45.237Z,22.7100
2022-10-24T04:53:47.441Z,22.7100
2022-10-24T04:54:49.669Z,22.7100
2022-10-24T04:55:51.888Z,22.7200
2022-10-24T04:56:54.126Z,22.7100
2022-10-24T04:57:56.360Z,22.6700
2022-10-24T04:58:58.572Z,22.6700
2022-10-24T05:00:00.750Z,22.6900
2022-10-24T05:01:02.949Z,22.6900
2022-10-24T05:02:05.162Z,22.7100
2022-10-24T05:03:07.185Z,22.7000
2022-10-24T05:04:09.357Z,22.6900
2022-10-24T05:05:11.611Z,22.6900
2022-10-24T05:06:13.789Z,22.7000
2022-10-24T05:07:16.004Z,22.7000
2022-10-24T05:08:18.266Z,22.7000
2022-10-24T05:09:20.466Z,22.7000
2022-10-24T05:10:22.694Z,22.7100
2022-10-24T05:11:24.932Z,22.7000
2022-10-24T05:12:27.180Z,22.7000
2022-10-24T05:13:31.823Z,22.7000
2022-10-24T05:14:31.644Z,22.6900
2022-10-24T05:15:33.900Z,22.7000
2022-10-24T05:16:36.115Z,22.6900
2022-10-24T05:17:38.345Z,22.7000
2022-10-24T05:18:40.605Z,22.7000
2022-10-24T05:19:42.814Z,22.7000
2022-10-24T05:20:45.043Z,22.6900
2022-10-24T05:21:47.266Z,22.6800
2022-10-24T05:22:49.493Z,22.7000
2022-10-24T05:23:51.745Z,22.6900
2022-10-24T05:24:53.862Z,22.7000
2022-10-24T05:25:55.974Z,22.7000
2022-10-24T05:26:58.142Z,22.6900
2022-10-24T05:28:00.317Z,22.7000
2022-10-24T05:29:02.593Z,22.7000
2022-10-24T05:30:04.697Z,22.6900
2022-10-24T05:31:06.908Z,22.6700
2022-10-24T05:32:09.013Z,22.6800
2022-10-24T05:33:11.152Z,22.6800
2022-10-24T05:34:13.306Z,22.6800
2022-10-24T05:35:15.365Z,22.6800
2022-10-24T05:36:17.459Z,22.6800
2022-10-24T05:37:19.676Z,22.6700
2022-10-24T05:38:21.679Z,22.6700
2022-10-24T05:39:23.808Z,22.6700
2022-10-24T05:40:25.893Z,22.6700
2022-10-24T05:41:28.057Z,22.6700
2022-10-24T05:42:30.213Z,22.6600
2022-10-24T05:43:32.384Z,22.6600
2022-10-24T05:44:34.581Z,22.6700
2022-10-24T05:45:36.722Z,22.6700
2022-10-24T05:46:38.959Z,22.6700
2022-10-24T05:47:40.939Z,22.6700
2022-10-24T05:48:43.137Z,22.6600
2022-10-24T05:49:45.366Z,22.6600
2022-10-24T05:50:47.529Z,22.6500
2022-10-24T05:51:49.655Z,22.6500
2022-10-24T05:52:51.801Z,22.6500
2022-10-24T05:53:53.977Z,22.6600
2022-10-24T05:55:06.724Z,22.6600
2022-10-24T05:56:12.962Z,22.6400
2022-10-24T05:57:13.482Z,22.7600
2022-10-24T05:58:15.650Z,22.8200
2022-10-24T05:59:17.848Z,22.8700
2022-10-24T06:00:20.113Z,22.8800
2022-10-24T06:01:22.312Z,22.8900
2022-10-24T06:02:24.600Z,22.9000
2022-10-24T06:03:26.689Z,22.9000
2022-10-24T06:04:28.873Z,22.9000
2022-10-24T06:05:31.024Z,22.9100
2022-10-24T06:06:33.153Z,22.9200
2022-10-24T06:07:35.239Z,22.9200
2022-10-24T06:08:37.324Z,22.9200
2022-10-24T06:09:39.467Z,22.9200
2022-10-24T06:10:41.627Z,22.9100
2022-10-24T06:11:43.776Z,22.9100
2022-10-24T06:12:46.258Z,22.9100
2022-10-24T06:13:48.111Z,22.9000
2022-10-24T06:14:50.265Z,22.9000
2022-10-24T06:15:52.460Z,22.9000
2022-10-24T06:16:54.589Z,22.9100
2022-10-24T06:17:56.758Z,22.9100
2022-10-24T06:18:58.910Z,22.9200
2022-10-24T06:20:01.064Z,22.9300
2022-10-24T06:21:03.233Z,22.9200
2022-10-24T06:22:05.371Z,22.9200
2022-10-24T06:23:07.543Z,22.9300
2022-10-24T06:24:09.695Z,22.9200
2022-10-24T06:25:11.821Z,22.9200
2022-10-24T06:26:14.005Z,22.9100
2022-10-24T06:27:16.087Z,22.9000
2022-10-24T06:28:18.196Z,22.9100
2022-10-24T06:29:20.333Z,22.9100
2022-10-24T06:30:22.468Z,22.9100
2022-10-24T06:31:24.630Z,22.9000
2022-10-24T06:32:26.795Z,22.9000
2022-10-24T06:33:28.930Z,22.8900
2022-10-24T06:34:31.123Z,22.8900
2022-10-24T06:35:33.286Z,22.8900
2022-10-24T06:36:35.557Z,22.8900
2022-10-24T06:37:37.682Z,22.8900
2022-10-24T06:38:39.868Z,22.8900
2022-10-24T06:39:42.009Z,22.9000
2022-10-24T06:40:44.128Z,22.9100
2022-10-24T06:41:46.342Z,22.9000
2022-10-24T06:42:48.513Z,22.8900
2022-10-24T06:43:50.720Z,22.8900
2022-10-24T06:44:52.966Z,22.8800
2022-10-24T06:45:55.150Z,22.8900
2022-10-24T06:46:57.400Z,22.8800
2022-10-24T06:47:59.566Z,22.8900
2022-10-24T06:49:01.816Z,22.8900
2022-10-24T06:50:04.002Z,22.8900
2022-10-24T06:51:06.257Z,22.8900
2022-10-24T06:52:06.320Z,22.8800
2022-10-24T06:53:08.518Z,22.8900
2022-10-24T06:54:10.699Z,22.8800
2022-10-24T06:55:12.903Z,22.8900
2022-10-24T06:56:15.080Z,22.8900
2022-10-24T06:57:17.329Z,22.8800
2022-10-24T06:58:19.474Z,22.8700
2022-10-24T06:59:21.621Z,22.8700
2022-10-24T07:00:23.883Z,22.8800
2022-10-24T07:01:26.070Z,22.8800
2022-10-24T07:02:28.321Z,22.8800
2022-10-24T07:03:30.292Z,22.8800
2022-10-24T07:04:32.402Z,22.8900
2022-10-24T07:05:34.510Z,22.8800
2022-10-24T07:06:36.654Z,22.8900
2022-10-24T07:07:38.915Z,22.8900
2022-10-24T07:08:41.048Z,22.8800
2022-10-24T07:09:43.268Z,22.8800
2022-10-24T07:10:45.458Z,22.8800
2022-10-24T07:11:47.636Z,22.8800
2022-10-24T07:12:49.950Z,22.8900
2022-10-24T07:13:54.213Z,22.8800
2022-10-24T07:15:39.240Z,22.8500
2022-10-24T07:16:41.334Z,22.8600
2022-10-24T07:17:43.461Z,22.8500
2022-10-24T07:18:44.483Z,22.8600
2022-10-24T07:19:45.635Z,22.8600
2022-10-24T07:20:47.808Z,22.8600
2022-10-24T07:21:49.970Z,22.8600
2022-10-24T07:22:52.133Z,22.8800
2022-10-24T07:23:54.344Z,22.8900
2022-10-24T07:24:56.547Z,22.8800
2022-10-24T07:25:58.703Z,22.8800
2022-10-24T07:27:00.898Z,22.8700
2022-10-24T07:28:03.124Z,22.8700
2022-10-24T07:29:05.359Z,22.8800
2022-10-24T07:30:07.551Z,22.8700
2022-10-24T07:31:09.755Z,22.8800
2022-10-24T07:32:11.934Z,22.8800
2022-10-24T07:33:12.034Z,22.8800
2022-10-24T07:34:14.277Z,22.8600
2022-10-24T07:35:16.480Z,22.8600
2022-10-24T07:36:18.653Z,22.8600
2022-10-24T07:37:20.973Z,22.8700
2022-10-24T07:38:23.041Z,22.8600
2022-10-24T07:39:25.307Z,22.8600
2022-10-24T07:40:27.434Z,22.8600
2022-10-24T07:41:29.613Z,22.8700
2022-10-24T07:42:31.787Z,22.8800
2022-10-24T07:43:33.938Z,22.8700
2022-10-24T07:44:36.130Z,22.8700
2022-10-24T07:45:38.317Z,22.8700
2022-10-24T07:46:40.433Z,22.8600
2022-10-24T07:47:42.846Z,22.8700
2022-10-24T07:48:44.739Z,22.8700
2022-10-24T07:49:46.912Z,22.8700
2022-10-24T07:50:49.048Z,22.8700
2022-10-24T07:51:51.136Z,22.8700
2022-10-24T07:52:53.222Z,22.8500
2022-10-24T07:53:53.146Z,22.8600
2022-10-24T07:54:55.272Z,22.8500
2022-10-24T07:55:57.300Z,22.8600
2022-10-24T07:56:59.368Z,22.8500
2022-10-24T07:58:01.536Z,22.8400
2022-10-24T07:59:09.097Z,22.8600
2022-10-24T08:00:05.885Z,22.8400
2022-10-24T08:01:08.060Z,22.8600
2022-10-24T08:02:10.185Z,22.8600
2022-10-24T08:03:12.364Z,22.8500
2022-10-24T08:04:14.540Z,22.8500
2022-10-24T08:05:19.378Z,22.8500
2022-10-24T08:06:18.913Z,22.8400
2022-10-24T08:07:21.072Z,22.8500
2022-10-24T08:08:39.022Z,22.8300
2022-10-24T08:09:25.390Z,22.8100
2022-10-24T08:10:27.584Z,22.8300
2022-10-24T08:11:29.738Z,22.8300
2022-10-24T08:12:31.890Z,22.8400
2022-10-24T08:13:34.064Z,22.8500
2022-10-24T08:14:36.185Z,22.8600
2022-10-24T08:15:38.529Z,22.8500
2022-10-24T08:16:40.505Z,22.8400
2022-10-24T08:17:42.636Z,22.8400
2022-10-24T08:18:44.756Z,22.8500
2022-10-24T08:19:44.805Z,22.8500
2022-10-24T08:20:47.206Z,22.8600
2022-10-24T08:21:49.241Z,22.8600
2022-10-24T08:22:51.426Z,22.8500
2022-10-24T08:23:53.632Z,22.8300
2022-10-24T08:24:55.779Z,22.8300
2022-10-24T08:25:58.043Z,22.8400
2022-10-24T08:26:58.012Z,22.8400
2022-10-24T08:28:01.777Z,22.8400
2022-10-24T08:29:02.383Z,22.8400
2022-10-24T08:30:04.584Z,22.8400
2022-10-24T08:31:06.820Z,22.8500
2022-10-24T08:32:08.984Z,22.8400
2022-10-24T08:33:12.961Z,22.8400
2022-10-24T08:34:13.326Z,22.8300
2022-10-24T08:35:15.539Z,22.8400
2022-10-24T08:36:17.779Z,22.8300
2022-10-24T08:37:19.998Z,22.8300
2022-10-24T08:38:22.159Z,22.8400
2022-10-24T08:39:24.329Z,22.8400
2022-10-24T08:40:26.440Z,22.8300
2022-10-24T08:41:28.624Z,22.8300
2022-10-24T08:42:30.765Z,22.8300
2022-10-24T08:43:32.935Z,22.8100
2022-10-24T08:44:35.034Z,22.8200
2022-10-24T08:45:37.150Z,22.8300
2022-10-24T08:46:37.213Z,22.8400
2022-10-24T08:48:41.418Z,22.8400
2022-10-24T08:49:46.452Z,22.8400
2022-10-24T08:50:45.643Z,22.8200
2022-10-24T08:51:47.828Z,22.8300
2022-10-24T08:52:49.983Z,22.8300
2022-10-24T08:53:52.101Z,22.8400
2022-10-24T08:54:54.286Z,22.8500
2022-10-24T08:55:56.440Z,22.8500
2022-10-24T08:56:58.656Z,22.8500
2022-10-24T08:58:00.802Z,22.8600
2022-10-24T08:59:02.988Z,22.8500
2022-10-24T09:00:05.144Z,22.8600
2022-10-24T09:01:07.418Z,22.8600
2022-10-24T09:02:13.363Z,22.8600
2022-10-24T09:03:11.657Z,22.8400
2022-10-24T09:04:13.825Z,22.8500
2022-10-24T09:05:15.999Z,22.8600
2022-10-24T09:06:18.113Z,22.8600
2022-10-24T09:07:18.234Z,22.8600
2022-10-24T09:08:21.755Z,22.8600
2022-10-24T09:09:22.307Z,22.8500
2022-10-24T09:10:24.440Z,22.8400
2022-10-24T09:11:26.571Z,22.8500
2022-10-24T09:12:28.726Z,22.8600
2022-10-24T09:13:30.876Z,22.8600
2022-10-24T09:14:33.028Z,22.8600
2022-10-24T09:15:35.196Z,22.8600
2022-10-24T09:16:37.361Z,22.8600
2022-10-24T09:17:39.753Z,22.8500
2022-10-24T09:18:41.708Z,22.8500
2022-10-24T09:19:43.902Z,22.8400
2022-10-24T09:20:46.093Z,22.8500
2022-10-24T09:21:48.268Z,22.8400
2022-10-24T09:22:50.499Z,22.8400
2022-10-24T09:23:52.716Z,22.8400
2022-10-24T09:24:54.868Z,22.8500
2022-10-24T09:25:57.036Z,22.8400
2022-10-24T09:26:59.220Z,22.8300
2022-10-24T09:28:01.434Z,22.8300
2022-10-24T09:29:03.586Z,22.8300
2022-10-24T09:30:05.755Z,22.8400
2022-10-24T09:31:07.920Z,22.8400
2022-10-24T09:32:10.080Z,22.8300
2022-10-24T09:33:12.309Z,22.8300
2022-10-24T09:34:14.398Z,22.8500
2022-10-24T09:35:14.378Z,22.8400
2022-10-24T09:36:16.580Z,22.8400
2022-10-24T09:37:21.970Z,22.8400
2022-10-24T09:38:20.938Z,22.8100
2022-10-24T09:39:23.138Z,22.8000
2022-10-24T09:40:25.248Z,22.8100
2022-10-24T09:41:27.421Z,22.8100
2022-10-24T09:42:29.632Z,22.8200
2022-10-24T09:43:31.868Z,22.8200
2022-10-24T09:44:34.033Z,22.8200
2022-10-24T09:45:36.241Z,22.8200
2022-10-24T09:46:38.457Z,22.8100
2022-10-24T09:47:40.683Z,22.8200
2022-10-24T09:48:42.953Z,22.8300
2022-10-24T09:49:45.126Z,22.8300
2022-10-24T09:50:47.298Z,22.8300
2022-10-24T09:51:47.382Z,22.8200
2022-10-24T09:52:49.613Z,22.8200
2022-10-24T09:53:51.839Z,22.8200
2022-10-24T09:54:54.049Z,22.8200
2022-10-24T09:55:56.254Z,22.8100
2022-10-24T09:56:58.486Z,22.8200
2022-10-24T09:58:00.704Z,22.8200
2022-10-24T09:59:02.923Z,22.8200
2022-10-24T10:00:05.108Z,22.8200
2022-10-24T10:01:07.480Z,22.8100
2022-10-24T10:02:09.660Z,22.8000
2022-10-24T10:03:11.794Z,22.8000
2022-10-24T10:04:17.022Z,22.8000
2022-10-24T10:05:16.254Z,22.8000
2022-10-24T10:06:16.331Z,22.8100
2022-10-24T10:07:18.558Z,22.8100
2022-10-24T10:08:20.804Z,22.8100
2022-10-24T10:09:22.970Z,22.8200
2022-10-24T10:10:25.181Z,22.8000
2022-10-24T10:11:27.397Z,22.8000
2022-10-24T10:12:29.632Z,22.7900
2022-10-24T10:13:31.871Z,22.8000
2022-10-24T10:14:34.127Z,22.7900
2022-10-24T10:15:36.321Z,22.7900
2022-10-24T10:16:38.553Z,22.7900
2022-10-24T10:17:40.786Z,22.8000
2022-10-24T10:18:40.880Z,22.8000
2022-10-24T10:19:43.188Z,22.8100
2022-10-24T10:20:45.306Z,22.8000
2022-10-24T10:21:47.551Z,22.8100
2022-10-24T10:22:49.788Z,22.8100
2022-10-24T10:23:51.956Z,22.8200
2022-10-24T10:24:54.199Z,22.8100
2022-10-24T10:25:56.392Z,22.8200
2022-10-24T10:26:58.595Z,22.8200
2022-10-24T10:28:03.013Z,22.8200
2022-10-24T10:29:03.045Z,22.8200
2022-10-24T10:30:05.412Z,22.8200
2022-10-24T10:31:07.378Z,22.8200
2022-10-24T10:32:09.604Z,22.8200
2022-10-24T10:33:11.772Z,22.8100
2022-10-24T10:34:13.290Z,22.8200
2022-10-24T10:35:14.104Z,22.8100
2022-10-24T10:36:16.299Z,22.8000
2022-10-24T10:37:18.532Z,22.8100
2022-10-24T10:38:20.752Z,22.8200
2022-10-24T10:39:22.982Z,22.8200
2022-10-24T10:40:25.154Z,22.8200
2022-10-24T10:41:27.289Z,22.8300
2022-10-24T10:42:29.376Z,22.8300
2022-10-24T10:43:31.515Z,22.8300
2022-10-24T10:44:33.633Z,22.8300
2022-10-24T10:45:35.782Z,22.8200
2022-10-24T10:46:37.794Z,22.8200
2022-10-24T10:47:39.883Z,22.8100
2022-10-24T10:48:42.052Z,22.8100
2022-10-24T10:49:42.128Z,22.7900
2022-10-24T10:50:44.365Z,22.8000
2022-10-24T10:51:46.567Z,22.8000
2022-10-24T10:52:48.786Z,22.8100
2022-10-24T10:53:51.009Z,22.8300
2022-10-24T10:54:53.241Z,22.8300
2022-10-24T10:55:55.461Z,22.8400
2022-10-24T10:56:57.664Z,22.8300
2022-10-24T10:57:59.838Z,22.8200
2022-10-24T10:59:02.066Z,22.8300
2022-10-24T11:00:04.265Z,22.8300
2022-10-24T11:01:06.638Z,22.8400
2022-10-24T11:02:08.884Z,22.8300
2022-10-24T11:03:10.944Z,22.8300
2022-10-24T11:04:10.973Z,22.8200
2022-10-24T11:05:13.197Z,22.8200
2022-10-24T11:06:15.410Z,22.8300
2022-10-24T11:07:17.586Z,22.8400
2022-10-24T11:08:19.760Z,22.8400
2022-10-24T11:09:21.971Z,22.8300
2022-10-24T11:10:24.196Z,22.8400
2022-10-24T11:11:26.468Z,22.8300
2022-10-24T11:12:28.683Z,22.8300
2022-10-24T11:13:34.126Z,22.8100
2022-10-24T11:14:33.104Z,22.8000
2022-10-24T11:15:35.311Z,22.8100
2022-10-24T11:16:37.576Z,22.8300
2022-10-24T11:17:39.773Z,22.8200
2022-10-24T11:18:41.984Z,22.8100
2022-10-24T11:19:42.067Z,22.8100
2022-10-24T11:20:44.264Z,22.8100
2022-10-24T11:21:46.506Z,22.8200
2022-10-24T11:22:48.709Z,22.8300
2022-10-24T11:23:50.863Z,22.8300
2022-10-24T11:24:53.031Z,22.8300
2022-10-24T11:25:55.193Z,22.8300
2022-10-24T11:26:57.339Z,22.8300
2022-10-24T11:27:59.536Z,22.8400
2022-10-24T11:29:01.678Z,22.8300
2022-10-24T11:30:03.844Z,22.8300
2022-10-24T11:31:05.996Z,22.8200
2022-10-24T11:32:08.248Z,22.8100
2022-10-24T11:33:10.374Z,22.8100
2022-10-24T11:34:12.557Z,22.7900
2022-10-24T11:35:14.750Z,22.7900
2022-10-24T11:36:16.945Z,22.7900
2022-10-24T11:37:19.128Z,22.8000
2022-10-24T11:38:21.280Z,22.7900
2022-10-24T11:39:23.465Z,22.8000
2022-10-24T11:40:25.750Z,22.8000
2022-10-24T11:41:27.841Z,22.8100
2022-10-24T11:42:30.076Z,22.8000
2022-10-24T11:43:32.237Z,22.7900
2022-10-24T11:44:32.253Z,22.7900
2022-10-24T11:45:34.432Z,22.7900
2022-10-24T11:46:36.623Z,22.7900
2022-10-24T11:47:39.014Z,22.7900
2022-10-24T11:48:41.081Z,22.8000
2022-10-24T11:49:43.163Z,22.7900
2022-10-24T11:50:45.283Z,22.8000
2022-10-24T11:51:47.454Z,22.7900
2022-10-24T11:52:49.653Z,22.8000
2022-10-24T11:53:51.833Z,22.8100
2022-10-24T11:54:54.075Z,22.8100
2022-10-24T11:55:56.301Z,22.8200
2022-10-24T11:56:58.555Z,22.8200
2022-10-24T11:58:00.795Z,22.7900
2022-10-24T11:59:02.984Z,22.7800
2022-10-24T12:00:05.171Z,22.7800
2022-10-24T12:01:07.385Z,22.7900
2022-10-24T12:02:07.451Z,22.8100
2022-10-24T12:03:09.670Z,22.8000
2022-10-24T12:04:11.867Z,22.8000
2022-10-24T12:05:18.047Z,22.7900
2022-10-24T12:06:16.289Z,22.7900
2022-10-24T12:07:18.523Z,22.8000
2022-10-24T12:08:20.928Z,22.8100
2022-10-24T12:09:22.949Z,22.8100
2022-10-24T12:10:25.163Z,22.8000
2022-10-24T12:11:27.410Z,22.8000
2022-10-24T12:12:29.640Z,22.8100
2022-10-24T12:13:32.833Z,22.8000
2022-10-24T12:14:34.054Z,22.8000
2022-10-24T12:15:37.682Z,22.7900
2022-10-24T12:16:36.327Z,22.7800
2022-10-24T12:17:38.555Z,22.7800
2022-10-24T12:18:40.822Z,22.7700
2022-10-24T12:19:43.034Z,22.7600
2022-10-24T12:20:45.245Z,22.7700
2022-10-24T12:21:47.438Z,22.7700
2022-10-24T12:22:49.682Z,22.7800
2022-10-24T12:23:51.858Z,22.7900
2022-10-24T12:24:54.019Z,22.7800
2022-10-24T12:25:56.212Z,22.7800
2022-10-24T12:26:58.405Z,22.7700
2022-10-24T12:28:00.583Z,22.7700
2022-10-24T12:29:02.806Z,22.7800
2022-10-24T12:31:03.010Z,22.7300
2022-10-24T12:32:05.079Z,22.7600
2022-10-24T12:33:07.274Z,22.7600
2022-10-24T12:34:09.460Z,22.7600
2022-10-24T12:35:29.555Z,22.7600
2022-10-24T12:36:11.649Z,22.7500